Time,TemperatureF,DewpointF,PressureIn,WindDirection,WindDirectionDegrees,WindSpeedMPH,WindSpeedGustMPH,Humidity,HourlyPrecipIn,Conditions,Clouds,dailyrainin,SoftwareType,DateUTC
2013-09-17 00:02:00,62.0,47.0,-100.00,NNW,335,6.0,7.0,58,0.00,,,-99.99,,2013-09-17 07:02:00,
2013-09-17 00:23:00,60.0,47.0,-100.00,NNW,335,5.0,6.0,61,0.00,,,0.01,,2013-09-17 07:23:00,
2013-09-17 00:32:00,60.0,47.0,-100.00,NNW,335,5.0,6.0,61,0.00,,,0.01,,2013-09-17 07:32:00,
2013-09-17 00:52:00,59.0,46.0,-100.00,NNW,340,4.0,4.0,62,0.00,,,0.00,,2013-09-17 07:52:00,
2013-09-17 01:00:00,58.0,46.0,-100.00,NNW,337,3.0,4.0,66,0.00,,,0.00,,2013-09-17 08:00:00,
2013-09-17 01:02:00,59.0,46.0,-100.00,NNW,340,4.0,4.0,62,0.00,,,0.00,,2013-09-17 08:02:00,
2013-09-17 01:12:00,59.0,46.0,-100.00,NNW,340,4.0,4.0,62,0.00,,,0.00,,2013-09-17 08:12:00,
2013-09-17 01:22:00,58.0,46.0,-100.00,North,349,3.0,4.0,65,0.00,,,0.00,,2013-09-17 08:22:00,
2013-09-17 01:32:00,58.0,46.0,-100.00,North,349,3.0,4.0,65,0.00,,,0.00,,2013-09-17 08:32:00,
2013-09-17 01:52:00,58.0,46.0,-100.00,NNW,337,3.0,4.0,66,0.00,,,0.00,,2013-09-17 08:52:00,
2013-09-17 05:21:00,54.0,46.0,-100.00,West,271,2.0,2.0,73,0.00,,,-99.99,,2013-09-17 12:21:00,
2013-09-17 05:32:00,54.0,46.0,-100.00,West,271,2.0,2.0,73,0.00,,,-99.99,,2013-09-17 12:32:00,
2013-09-17 06:22:00,52.0,46.0,-100.00,North,349,4.0,4.0,80,0.00,,,-99.99,,2013-09-17 13:22:00,
2013-09-17 06:32:00,52.0,46.0,-100.00,North,349,4.0,4.0,80,0.00,,,-99.99,,2013-09-17 13:32:00,
2013-09-17 07:21:00,51.0,46.0,-100.00,NNE,14,2.0,2.0,84,0.00,,,-99.99,,2013-09-17 14:21:00,
2013-09-17 07:32:00,51.0,46.0,-100.00,NNE,14,2.0,2.0,84,0.00,,,-99.99,,2013-09-17 14:32:00,
2013-09-17 09:23:00,54.0,49.0,-100.00,North,7,4.0,5.0,81,0.00,,,-99.99,,2013-09-17 16:23:00,
2013-09-17 09:32:00,54.0,49.0,-100.00,North,7,4.0,5.0,81,0.00,,,-99.99,,2013-09-17 16:32:00,
2013-09-17 09:54:00,56.0,49.0,-100.00,NNE,31,2.0,3.0,78,0.00,,,-99.99,,2013-09-17 16:54:00,
2013-09-17 10:03:00,56.0,49.0,-100.00,NNE,31,2.0,3.0,78,0.00,,,-99.99,,2013-09-17 17:03:00,
2013-09-17 10:23:00,57.0,49.0,-100.00,East,89,2.0,2.0,73,0.00,,,-99.99,,2013-09-17 17:23:00,
2013-09-17 10:34:00,57.0,49.0,-100.00,East,89,2.0,2.0,73,0.00,,,-99.99,,2013-09-17 17:34:00,
2013-09-17 10:53:00,57.0,49.0,-100.00,WNW,296,4.0,5.0,74,0.00,,,-99.99,,2013-09-17 17:53:00,
2013-09-17 11:02:00,57.0,49.0,-100.00,WNW,296,4.0,5.0,74,0.00,,,-99.99,,2013-09-17 18:02:00,
2013-09-17 11:21:00,59.0,49.0,-100.00,North,349,4.0,5.0,71,0.00,,,-99.99,,2013-09-17 18:21:00,
2013-09-17 11:32:00,59.0,49.0,-100.00,North,349,4.0,5.0,71,0.00,,,-99.99,,2013-09-17 18:32:00,
2013-09-17 11:52:00,62.0,50.0,-100.00,North,354,3.0,5.0,65,0.00,,,-99.99,,2013-09-17 18:52:00,
2013-09-17 12:02:00,62.0,50.0,-100.00,North,354,3.0,5.0,65,0.00,,,-99.99,,2013-09-17 19:02:00,
2013-09-17 12:21:00,61.0,49.0,-100.00,North,3,5.0,7.0,65,0.00,,,-99.99,,2013-09-17 19:21:00,
2013-09-17 12:32:00,61.0,49.0,-100.00,North,3,5.0,7.0,65,0.00,,,-99.99,,2013-09-17 19:32:00,
2013-09-17 12:52:00,62.0,49.0,-100.00,NW,311,9.0,11.0,63,0.00,,,-99.99,,2013-09-17 19:52:00,
2013-09-17 13:02:00,62.0,49.0,-100.00,NW,311,9.0,11.0,63,0.00,,,-99.99,,2013-09-17 20:02:00,
2013-09-17 13:22:00,64.0,50.0,-100.00,WNW,289,6.0,9.0,60,0.00,,,-99.99,,2013-09-17 20:22:00,
2013-09-17 13:32:00,64.0,50.0,-100.00,WNW,289,6.0,9.0,60,0.00,,,-99.99,,2013-09-17 20:32:00,
2013-09-17 13:52:00,64.0,49.0,-100.00,WNW,302,11.0,14.0,58,0.00,,,-99.99,,2013-09-17 20:52:00,
2013-09-17 14:01:00,64.0,49.0,-100.00,WNW,302,11.0,14.0,58,0.00,,,-99.99,,2013-09-17 21:01:00,
2013-09-17 14:22:00,65.0,49.0,-100.00,NW,304,11.0,17.0,56,0.00,,,-99.99,,2013-09-17 21:22:00,
2013-09-17 14:34:00,65.0,49.0,-100.00,NW,304,11.0,17.0,56,0.00,,,-99.99,,2013-09-17 21:34:00,
2013-09-17 14:54:00,67.0,49.0,-100.00,NW,313,9.0,13.0,55,0.00,,,-99.99,,2013-09-17 21:54:00,
2013-09-17 15:04:00,67.0,49.0,-100.00,NW,313,9.0,13.0,55,0.00,,,-99.99,,2013-09-17 22:04:00,
2013-09-17 15:24:00,65.0,49.0,-100.00,WNW,292,13.0,19.0,56,0.00,,,-99.99,,2013-09-17 22:24:00,
2013-09-17 15:33:00,65.0,49.0,-100.00,WNW,292,13.0,19.0,56,0.00,,,-99.99,,2013-09-17 22:33:00,
2013-09-17 15:53:00,65.0,49.0,-100.00,NW,316,9.0,13.0,55,0.00,,,-99.99,,2013-09-17 22:53:00,
2013-09-17 16:03:00,65.0,49.0,-100.00,NW,316,9.0,13.0,55,0.00,,,-99.99,,2013-09-17 23:03:00,
2013-09-17 16:21:00,65.0,49.0,-100.00,West,278,9.0,12.0,56,0.00,,,-99.99,,2013-09-17 23:21:00,
2013-09-17 16:34:00,65.0,49.0,-100.00,West,278,9.0,12.0,56,0.00,,,-99.99,,2013-09-17 23:34:00,
2013-09-17 16:52:00,59.0,50.0,-100.00,WNW,292,17.0,21.0,72,0.00,,,-99.99,,2013-09-17 23:52:00,
2013-09-17 17:02:00,59.0,50.0,-100.00,WNW,292,17.0,21.0,72,0.00,,,-99.99,,2013-09-18 00:02:00,
2013-09-17 17:22:00,57.0,49.0,-100.00,WNW,295,18.0,22.0,76,0.00,,,-99.99,,2013-09-18 00:22:00,
2013-09-17 17:32:00,57.0,49.0,-100.00,WNW,295,18.0,22.0,76,0.00,,,-99.99,,2013-09-18 00:32:00,
2013-09-17 17:52:00,55.0,51.0,-100.00,NW,308,16.0,20.0,85,0.00,,,-99.99,,2013-09-18 00:52:00,
2013-09-17 18:01:00,55.0,51.0,-100.00,NW,308,16.0,20.0,85,0.00,,,-99.99,,2013-09-18 01:01:00,
2013-09-17 18:21:00,55.0,51.0,-100.00,WNW,294,14.0,18.0,86,0.00,,,-99.99,,2013-09-18 01:21:00,
2013-09-17 18:32:00,55.0,51.0,-100.00,WNW,294,14.0,18.0,86,0.00,,,-99.99,,2013-09-18 01:32:00,
2013-09-17 18:52:00,54.0,51.0,-100.00,NW,311,14.0,18.0,89,0.00,,,-99.99,,2013-09-18 01:52:00,
2013-09-17 19:03:00,54.0,51.0,-100.00,NW,311,14.0,18.0,89,0.00,,,-99.99,,2013-09-18 02:03:00,
2013-09-17 19:22:00,53.0,51.0,-100.00,WNW,292,14.0,17.0,90,0.00,,,-99.99,,2013-09-18 02:22:00,
2013-09-17 19:32:00,53.0,51.0,-100.00,WNW,292,14.0,17.0,90,0.00,,,-99.99,,2013-09-18 02:32:00,
2013-09-17 19:52:00,53.0,51.0,-100.00,West,270,15.0,17.0,94,0.02,,,-99.99,,2013-09-18 02:52:00,
2013-09-17 20:02:00,53.0,51.0,-100.00,West,270,15.0,17.0,94,0.02,,,-99.99,,2013-09-18 03:02:00,
2013-09-17 20:23:00,52.0,51.0,-100.00,West,274,12.0,19.0,95,0.07,,,-99.99,,2013-09-18 03:23:00,
2013-09-17 20:35:00,52.0,51.0,-100.00,West,274,12.0,19.0,95,0.07,,,-99.99,,2013-09-18 03:35:00,
2013-09-17 20:55:00,51.0,51.0,-100.00,WNW,289,10.0,12.0,97,0.06,,,-99.99,,2013-09-18 03:55:00,
2013-09-17 21:04:00,51.0,51.0,-100.00,WNW,289,10.0,12.0,97,0.06,,,-99.99,,2013-09-18 04:04:00,
2013-09-17 21:24:00,51.0,51.0,-100.00,WNW,287,5.0,6.0,99,0.00,,,-99.99,,2013-09-18 04:24:00,
2013-09-17 21:33:00,51.0,51.0,-100.00,WNW,287,5.0,6.0,99,0.00,,,-99.99,,2013-09-18 04:33:00,
2013-09-17 21:54:00,51.0,51.0,-100.00,SW,220,2.0,3.0,99,0.00,,,-99.99,,2013-09-18 04:54:00,
2013-09-17 22:04:00,51.0,51.0,-100.00,SW,220,2.0,3.0,99,0.00,,,-99.99,,2013-09-18 05:04:00,
2013-09-17 22:23:00,51.0,51.0,-100.00,SSW,192,4.0,5.0,99,0.00,,,-99.99,,2013-09-18 05:23:00,
2013-09-17 22:33:00,51.0,51.0,-100.00,SSW,192,4.0,5.0,99,0.00,,,-99.99,,2013-09-18 05:33:00,
2013-09-17 22:53:00,51.0,51.0,-100.00,South,181,7.0,8.0,99,0.00,,,-99.99,,2013-09-18 05:53:00,
2013-09-17 23:02:00,51.0,51.0,-100.00,South,181,7.0,8.0,99,0.00,,,-99.99,,2013-09-18 06:02:00,
2013-09-17 23:22:00,51.0,50.0,-100.00,South,184,7.0,9.0,98,0.05,,,-99.99,,2013-09-18 06:22:00,
2013-09-17 23:33:00,51.0,50.0,-100.00,South,184,7.0,9.0,98,0.05,,,-99.99,,2013-09-18 06:33:00,
2013-09-17 23:52:00,51.0,50.0,-100.00,South,169,7.0,9.0,98,0.00,,,-99.99,,2013-09-18 06:52:00,